Church Hill, TN (37642)

6:54 AM EDT on March 29, 2015 (GMT -0400)
Reservoir Rd./Bays Mountain Park Area | | Change Station
CLOSE
Current Station
Personal Weather Station
Location: Kingsport, TN
Elevation: 1558 ft
Nearby Weather Stations
Active Advisory: Hard Freeze Warning

Elev 1558 ft 36.49 °N, 82.62 °W | Updated 22 seconds ago

Clear
Clear
25.7 °F
Feels Like 26 °F
N
0.0
Wind Variable Wind from WNW
Gusts 0.0 mph

Today
High -- | Low -- °F
--% Chance of Precip.
Yesterday
High -- | Low -- °F
Precip. -- in
7:21 AM 7:50 PM
Waxing Gibbous, 70% visible
Pressure 30.35 in
Visibility 10.0 miles
Clouds Clear
Windchill 26 °F
Dew Point 16 °F
Humidity 65%
Rainfall 0.00 in
Snow Depth Not available.
UV 0.0 out of 12
Pollen 7.00 out of 12
Air Quality Not available.
Flu Activity Not available.
METAR KTRI 290953Z 36003KT 10SM CLR M07/M11 A3033 RMK AO2 SLP275 T10671106

More Conditions Fewer Conditions

Pressure 30.35 in
Visibility 10.0 miles
Clouds Clear
Windchill 26 °F
Dew Point 16 °F
Humidity 65%
Rainfall 0.00 in
Snow Depth Not available.
UV 0.0 out of 12
Pollen 7.00 out of 12
Air Quality Not available.
Flu Activity Not available.
METAR KTRI 290953Z 36003KT 10SM CLR M07/M11 A3033 RMK AO2 SLP275 T10671106

More Conditions Fewer Conditions

10-Day Weather Forecast

Almanac

Astronomy

Mar. 29, 2015 Rise Set
Actual Time
Civil Twilight
Nautical Twilight
Astronomical Twilight
Moon
Length of Visible Light
Length of Day
Tomorrow will be .
, % of the Moon is Illuminated

Today's Extremes

State Highs State Lows

Community

WunderPhotos

Upload Photos

1,809,214 photos uploaded!

WunderBlogs® & News

Nearby

Air Quality

  Air Quality AQ Index Pollutant
Not available.

Snow Depth

Station Depth Elevation

Earthquake Activity

City Distance Mag. Time & Date
Minimum magnitude displayed is 2.5.

Coastal Water Temperatures

Place Temperature

Stations

Nearby Weather Stations

Station Location Temp. Windchill Dew Point Humidity Wind Precip. Elev Updated Type
                   
Hard Freeze Warning
Statement as of 3:59 AM EDT on March 29, 2015

... Hard freeze warning remains in effect until 11 am EDT /10 am
CDT/ this morning...

* event... a hard freeze is occurring over most of the region early
this morning. Temperatures are in the 20s area-wide.

* Timing... abundant sunshine and return of southerly winds will
allow temperatures to warm quickly this morning. Temperatures
will warm at or above freezing by around 10 et (9 am ct).

* Impacts... the prolonged period of freezing temperatures will kill
Strawberry plants and blooms of any fruit trees if not protected.

Precautionary/preparedness actions...

A hard freeze warning means sub-freezing temperatures are
imminent or highly likely. These conditions will kill crops and
other sensitive vegetation.